Time;durP1;ratioP1;P1;durP2;ratioP2;P2;SDS_P1;SDS_P2;PMS_P1;PMS_P2;Temp;Humidity;BMP_temperature;BMP_pressure;BME280_temperature;BME280_humidity;BME280_pressure;Samples;Min_cycle;Max_cycle;Signal;HPM_P1;HPM_P2
2021/12/19 00:08:27;;;;;;;1.53;0.60;;;;;;;;;;5017624;28;20453;-17
2021/12/19 00:10:13;;;;;;;2.65;0.40;;;;;;;;;;5016772;28;20068;-18
2021/12/19 00:12:39;;;;;;;4.93;1.00;;;;;;;;;;5016826;28;20030;-18
2021/12/19 00:15:07;;;;;;;2.67;0.70;;;;;;;;;;5016673;28;20022;-18
2021/12/19 00:17:35;;;;;;;2.22;0.70;;;;;;;;;;5016579;28;20100;-18
2021/12/19 00:20:01;;;;;;;4.05;0.82;;;;;;;;;;5016587;28;20105;-17
2021/12/19 00:22:29;;;;;;;6.40;1.57;;;;;;;;;;5016772;28;20101;-17
2021/12/19 00:24:55;;;;;;;3.53;0.88;;;;;;;;;;4999182;28;20033;-18
2021/12/19 00:27:21;;;;;;;2.92;0.88;;;;;;;;;;4999924;28;20029;-18
2021/12/19 00:29:49;;;;;;;3.80;1.00;;;;;;;;;;5016568;28;20099;-18
2021/12/19 00:32:16;;;;;;;3.90;0.88;;;;;;;;;;5016134;28;20022;-18
2021/12/19 00:34:43;;;;;;;2.63;0.65;;;;;;;;;;4999480;28;20049;-18
2021/12/19 00:37:11;;;;;;;3.50;0.63;;;;;;;;;;5016304;28;20487;-17
2021/12/19 00:39:39;;;;;;;3.25;0.70;;;;;;;;;;5016126;28;20599;-18
2021/12/19 00:42:08;;;;;;;2.03;0.50;;;;;;;;;;5016377;28;20022;-18
2021/12/19 00:44:37;;;;;;;3.38;0.70;;;;;;;;;;5016057;28;20033;-18
2021/12/19 00:47:07;;;;;;;5.30;0.88;;;;;;;;;;5016043;28;20026;-18
2021/12/19 00:49:35;;;;;;;3.63;0.50;;;;;;;;;;5015868;28;20080;-18
2021/12/19 00:52:03;;;;;;;2.58;0.47;;;;;;;;;;5015889;28;20030;-17
2021/12/19 00:54:30;;;;;;;5.05;0.85;;;;;;;;;;5016159;28;20026;-18
2021/12/19 00:56:56;;;;;;;3.23;0.60;;;;;;;;;;5015929;28;20054;-18
2021/12/19 00:59:23;;;;;;;2.80;0.70;;;;;;;;;;5015827;28;20334;-19
2021/12/19 01:01:50;;;;;;;1.27;0.60;;;;;;;;;;5016001;28;20148;-19
2021/12/19 01:04:18;;;;;;;2.70;0.60;;;;;;;;;;5016001;28;20100;-18
2021/12/19 01:06:46;;;;;;;2.45;0.80;;;;;;;;;;5015441;28;20301;-18
2021/12/19 01:09:13;;;;;;;2.47;0.43;;;;;;;;;;4998506;28;20029;-18
2021/12/19 01:11:40;;;;;;;4.03;0.60;;;;;;;;;;5015540;28;20068;-17
2021/12/19 01:14:08;;;;;;;3.47;1.08;;;;;;;;;;5015527;28;20100;-18
2021/12/19 01:16:37;;;;;;;4.40;0.85;;;;;;;;;;5015753;28;20026;-17
2021/12/19 01:19:03;;;;;;;2.60;0.95;;;;;;;;;;5014866;28;20041;-17
2021/12/19 01:21:30;;;;;;;4.50;0.68;;;;;;;;;;5015711;28;20029;-18
2021/12/19 01:23:57;;;;;;;3.67;0.40;;;;;;;;;;5015287;28;20041;-18
2021/12/19 01:26:23;;;;;;;3.13;0.83;;;;;;;;;;5015405;28;20030;-17
2021/12/19 01:28:50;;;;;;;4.00;0.70;;;;;;;;;;4998265;28;20257;-18
2021/12/19 01:31:17;;;;;;;2.70;0.82;;;;;;;;;;5015450;28;20026;-18
2021/12/19 01:33:44;;;;;;;2.33;0.55;;;;;;;;;;5015169;28;20033;-18
2021/12/19 01:36:12;;;;;;;3.13;0.50;;;;;;;;;;4997889;28;20054;-18
2021/12/19 01:38:39;;;;;;;2.80;0.60;;;;;;;;;;5015129;28;20034;-17
2021/12/19 01:41:05;;;;;;;5.00;0.82;;;;;;;;;;5015034;28;20083;-18
2021/12/19 01:43:32;;;;;;;4.83;0.70;;;;;;;;;;5015184;28;20358;-18
2021/12/19 01:45:59;;;;;;;2.13;0.70;;;;;;;;;;5015096;28;20271;-18
2021/12/19 01:48:25;;;;;;;;;;;;;;;;;;5015429;28;20049;-18
2021/12/19 01:50:52;;;;;;;3.03;0.67;;;;;;;;;;4997620;28;20414;-18
2021/12/19 01:53:18;;;;;;;3.20;0.60;;;;;;;;;;5014879;28;20112;-18
2021/12/19 01:55:47;;;;;;;2.33;0.55;;;;;;;;;;5014881;28;20104;-18
2021/12/19 01:58:16;;;;;;;2.38;0.50;;;;;;;;;;5014852;28;20026;-18
2021/12/19 02:00:46;;;;;;;1.58;0.47;;;;;;;;;;5015150;28;20033;-17
2021/12/19 02:03:13;;;;;;;4.18;0.77;;;;;;;;;;5014956;28;20048;-18
2021/12/19 02:05:40;;;;;;;1.83;0.60;;;;;;;;;;5014800;28;20034;-18
2021/12/19 02:08:08;;;;;;;2.05;0.70;;;;;;;;;;5014522;28;20050;-17
2021/12/19 02:10:36;;;;;;;2.13;0.60;;;;;;;;;;5014955;28;20036;-19
2021/12/19 02:13:04;;;;;;;2.50;0.43;;;;;;;;;;5014930;28;20473;-18
2021/12/19 02:15:32;;;;;;;2.17;0.75;;;;;;;;;;5014946;28;20040;-17
2021/12/19 02:18:02;;;;;;;1.85;0.50;;;;;;;;;;5014920;28;20057;-18
2021/12/19 02:20:35;;;;;;;3.40;0.50;;;;;;;;;;5014633;28;20034;-18
2021/12/19 02:23:02;;;;;;;7.03;0.80;;;;;;;;;;5014554;28;20053;-18
2021/12/19 02:25:29;;;;;;;1.92;0.47;;;;;;;;;;5014898;28;20080;-18
2021/12/19 02:27:55;;;;;;;1.93;0.53;;;;;;;;;;5015111;28;20036;-18
2021/12/19 02:30:23;;;;;;;4.13;0.50;;;;;;;;;;5016915;28;20111;-18
2021/12/19 02:32:51;;;;;;;3.40;0.60;;;;;;;;;;5018487;28;20022;-18
2021/12/19 02:35:23;;;;;;;1.92;0.60;;;;;;;;;;5018447;28;20022;-17
2021/12/19 02:48:27;;;;;;;2.60;0.30;;;;;;;;;;5018567;28;20064;-17
2021/12/19 02:50:55;;;;;;;2.35;0.60;;;;;;;;;;5018166;28;20046;-17
2021/12/19 02:53:38;;;;;;;2.65;0.68;;;;;;;;;;5018345;28;20416;-17
2021/12/19 02:56:07;;;;;;;4.97;0.77;;;;;;;;;;5018115;28;20092;-18
2021/12/19 02:58:36;;;;;;;2.75;0.52;;;;;;;;;;5018282;28;20091;-17
2021/12/19 03:01:05;;;;;;;2.50;0.50;;;;;;;;;;5018034;28;20042;-18
2021/12/19 03:03:31;;;;;;;1.73;0.50;;;;;;;;;;5018169;28;20109;-17
2021/12/19 03:05:59;;;;;;;1.45;0.70;;;;;;;;;;5017930;28;20034;-17
2021/12/19 03:08:28;;;;;;;2.08;0.70;;;;;;;;;;5018219;28;20353;-19
2021/12/19 03:18:53;;;;;;;1.90;0.40;;;;;;;;;;5018053;28;20095;-18
2021/12/19 03:21:24;;;;;;;1.90;0.67;;;;;;;;;;5017737;28;20045;-17
2021/12/19 03:23:54;;;;;;;2.17;0.68;;;;;;;;;;5017566;28;20046;-18
2021/12/19 03:26:21;;;;;;;3.38;0.50;;;;;;;;;;5017912;28;20151;-18
2021/12/19 03:28:50;;;;;;;2.30;0.30;;;;;;;;;;5017619;28;20129;-18
2021/12/19 03:31:16;;;;;;;1.65;0.60;;;;;;;;;;5017426;28;20056;-18
2021/12/19 03:33:43;;;;;;;3.55;0.63;;;;;;;;;;5017393;28;20114;-18
2021/12/19 03:36:09;;;;;;;2.20;0.40;;;;;;;;;;5017433;28;20396;-18
2021/12/19 03:38:41;;;;;;;1.67;0.30;;;;;;;;;;5017410;28;20093;-18
2021/12/19 03:41:17;;;;;;;1.38;0.45;;;;;;;;;;5016663;28;20041;-18
2021/12/19 03:43:44;;;;;;;2.42;0.63;;;;;;;;;;5017474;28;20026;-17
2021/12/19 03:46:10;;;;;;;1.33;0.43;;;;;;;;;;5017197;28;20038;-18
2021/12/19 03:48:38;;;;;;;1.67;0.40;;;;;;;;;;5017182;28;20030;-18
2021/12/19 03:51:08;;;;;;;1.50;0.43;;;;;;;;;;5016970;28;20814;-18
2021/12/19 03:53:36;;;;;;;2.90;0.85;;;;;;;;;;5016997;28;20038;-18
2021/12/19 03:56:05;;;;;;;1.13;0.47;;;;;;;;;;5017045;28;20026;-18
2021/12/19 03:58:32;;;;;;;2.13;0.60;;;;;;;;;;5017016;28;20484;-19
2021/12/19 04:01:02;;;;;;;1.63;0.60;;;;;;;;;;5016880;28;20034;-18
2021/12/19 04:03:30;;;;;;;3.03;0.60;;;;;;;;;;5017070;28;20102;-18
2021/12/19 04:05:56;;;;;;;2.28;0.50;;;;;;;;;;4999365;28;20030;-19
2021/12/19 04:08:22;;;;;;;1.60;0.50;;;;;;;;;;5017119;28;20034;-17
2021/12/19 04:10:54;;;;;;;1.98;0.68;;;;;;;;;;5016726;28;20489;-18
2021/12/19 04:13:22;;;;;;;4.10;0.90;;;;;;;;;;5016798;28;20105;-18
2021/12/19 04:15:50;;;;;;;3.22;0.80;;;;;;;;;;5016638;28;20026;-18
2021/12/19 04:18:20;;;;;;;2.10;0.70;;;;;;;;;;5016553;28;20022;-18
2021/12/19 04:20:47;;;;;;;1.23;0.50;;;;;;;;;;5016529;28;20053;-18
2021/12/19 04:23:16;;;;;;;1.35;0.60;;;;;;;;;;4999229;28;20521;-18
2021/12/19 04:25:42;;;;;;;2.28;0.70;;;;;;;;;;5017025;28;20034;-18
2021/12/19 04:28:09;;;;;;;4.00;1.02;;;;;;;;;;5016470;28;20041;-18
2021/12/19 04:30:36;;;;;;;2.60;0.40;;;;;;;;;;5016302;28;20478;-18
2021/12/19 04:33:07;;;;;;;1.33;0.63;;;;;;;;;;5016398;28;20249;-18
2021/12/19 04:35:36;;;;;;;1.58;0.50;;;;;;;;;;5016281;28;20053;-18
2021/12/19 04:38:46;;;;;;;2.67;0.63;;;;;;;;;;5016191;28;20113;-18
2021/12/19 04:54:30;;;;;;;1.90;0.47;;;;;;;;;;5015239;28;20080;-18
2021/12/19 05:02:15;;;;;;;2.20;0.30;;;;;;;;;;5015773;28;20108;-18
2021/12/19 05:15:29;;;;;;;1.35;0.32;;;;;;;;;;5015915;28;20045;-18
2021/12/19 05:18:01;;;;;;;1.05;0.40;;;;;;;;;;5015512;28;20030;-18
2021/12/19 05:20:32;;;;;;;2.38;0.65;;;;;;;;;;4998198;28;20030;-18
2021/12/19 05:23:17;;;;;;;4.15;1.00;;;;;;;;;;4998060;28;20098;-17
2021/12/19 05:25:47;;;;;;;1.60;0.38;;;;;;;;;;5015422;28;20038;-18
2021/12/19 05:28:17;;;;;;;1.20;0.60;;;;;;;;;;5015353;28;20461;-17
2021/12/19 05:30:47;;;;;;;1.00;0.47;;;;;;;;;;5015484;28;20132;-18
2021/12/19 05:33:20;;;;;;;2.85;0.80;;;;;;;;;;5015319;28;20026;-18
2021/12/19 05:36:11;;;;;;;3.75;1.15;;;;;;;;;;5015243;28;20098;-18
2021/12/19 05:46:59;;;;;;;2.88;0.73;;;;;;;;;;5015380;28;20067;-18
2021/12/19 05:49:25;;;;;;;1.35;0.55;;;;;;;;;;5014992;28;20045;-18
2021/12/19 05:51:53;;;;;;;1.93;0.50;;;;;;;;;;5014876;28;20021;-18
2021/12/19 05:54:20;;;;;;;;;;;;;;;;;;5015386;28;20253;-18
2021/12/19 05:56:49;;;;;;;1.25;0.30;;;;;;;;;;5014964;28;19909;-17
2021/12/19 05:59:16;;;;;;;1.23;0.40;;;;;;;;;;5014911;28;20100;-18
2021/12/19 06:01:43;;;;;;;2.10;0.40;;;;;;;;;;5014846;28;20033;-18
2021/12/19 06:04:10;;;;;;;0.52;0.20;;;;;;;;;;5014485;28;20445;-18
2021/12/19 06:06:37;;;;;;;1.63;0.50;;;;;;;;;;5014790;28;20045;-18
2021/12/19 06:09:07;;;;;;;1.33;0.50;;;;;;;;;;5014700;28;20081;-18
2021/12/19 06:11:33;;;;;;;2.10;0.60;;;;;;;;;;5014951;28;20021;-18
2021/12/19 06:14:00;;;;;;;2.15;0.43;;;;;;;;;;5014618;28;20053;-18
2021/12/19 06:16:31;;;;;;;1.10;0.60;;;;;;;;;;5014904;28;20037;-18
2021/12/19 06:18:58;;;;;;;1.25;0.35;;;;;;;;;;5014570;28;20038;-18
2021/12/19 06:21:24;;;;;;;1.13;0.40;;;;;;;;;;4997330;28;20053;-18
2021/12/19 06:23:53;;;;;;;1.63;0.30;;;;;;;;;;5014853;28;20045;-18
2021/12/19 06:26:20;;;;;;;0.68;0.20;;;;;;;;;;5014798;28;20698;-18
2021/12/19 06:28:47;;;;;;;3.15;0.47;;;;;;;;;;5014596;28;20388;-18
2021/12/19 06:31:14;;;;;;;2.55;0.40;;;;;;;;;;5014408;28;20041;-18
2021/12/19 06:33:41;;;;;;;0.82;0.30;;;;;;;;;;5014739;28;20022;-18
2021/12/19 06:36:08;;;;;;;0.77;0.40;;;;;;;;;;4997273;28;20022;-18
2021/12/19 06:38:34;;;;;;;;;;;;;;;;;;5014876;28;20025;-18
2021/12/19 06:41:02;;;;;;;1.07;0.37;;;;;;;;;;5014546;28;19909;-17
2021/12/19 06:43:32;;;;;;;1.45;0.43;;;;;;;;;;5014281;28;20276;-17
2021/12/19 06:45:59;;;;;;;1.88;0.57;;;;;;;;;;5014683;28;20088;-18
2021/12/19 06:48:26;;;;;;;1.23;0.47;;;;;;;;;;5014348;28;20033;-18
2021/12/19 06:50:54;;;;;;;1.75;0.50;;;;;;;;;;5014541;28;20061;-18
2021/12/19 06:53:25;;;;;;;0.90;0.47;;;;;;;;;;5014492;28;20120;-18
2021/12/19 06:55:51;;;;;;;0.82;0.30;;;;;;;;;;4997047;28;20062;-18
2021/12/19 06:58:18;;;;;;;1.90;0.70;;;;;;;;;;5014577;28;20053;-18
2021/12/19 07:00:46;;;;;;;1.50;0.50;;;;;;;;;;5014760;28;20041;-18
2021/12/19 07:03:14;;;;;;;2.00;0.50;;;;;;;;;;5014307;28;20029;-18
2021/12/19 07:05:40;;;;;;;0.85;0.30;;;;;;;;;;4996932;28;20026;-18
2021/12/19 07:08:07;;;;;;;1.27;0.33;;;;;;;;;;4993585;28;20154;-18
2021/12/19 07:10:36;;;;;;;1.52;0.30;;;;;;;;;;4993941;28;20117;-18
2021/12/19 07:13:05;;;;;;;2.08;0.55;;;;;;;;;;4994446;28;20018;-18
2021/12/19 07:15:31;;;;;;;1.33;0.30;;;;;;;;;;4994836;28;20358;-19
2021/12/19 07:18:02;;;;;;;1.48;0.43;;;;;;;;;;4997933;28;20036;-18
2021/12/19 07:20:30;;;;;;;1.92;0.43;;;;;;;;;;4998124;28;20085;-18
2021/12/19 07:22:58;;;;;;;1.85;0.45;;;;;;;;;;4998271;28;20033;-18
2021/12/19 07:25:25;;;;;;;0.70;0.32;;;;;;;;;;4998254;28;20027;-18
2021/12/19 07:27:52;;;;;;;0.38;0.30;;;;;;;;;;4998273;28;20038;-18
2021/12/19 07:30:18;;;;;;;0.95;0.40;;;;;;;;;;4997845;28;20057;-18
2021/12/19 07:32:45;;;;;;;1.35;0.73;;;;;;;;;;4998096;28;20089;-18
2021/12/19 07:35:13;;;;;;;2.63;0.40;;;;;;;;;;4997854;28;20485;-18
2021/12/19 07:37:41;;;;;;;0.68;0.28;;;;;;;;;;4998075;28;20413;-18
2021/12/19 07:40:15;;;;;;;;;;;;;;;;;;4998223;28;20041;-18
2021/12/19 07:42:43;;;;;;;1.00;0.30;;;;;;;;;;4996740;28;19917;-17
2021/12/19 07:45:12;;;;;;;0.80;0.30;;;;;;;;;;4997959;28;20409;-18
2021/12/19 07:47:39;;;;;;;0.93;0.40;;;;;;;;;;4997579;28;20030;-18
2021/12/19 07:50:05;;;;;;;;;;;;;;;;;;4997868;28;20033;-18
2021/12/19 07:52:33;;;;;;;0.93;0.20;;;;;;;;;;4997527;28;19975;-18
2021/12/19 07:55:00;;;;;;;1.05;0.57;;;;;;;;;;4997456;28;20356;-18
2021/12/19 07:57:27;;;;;;;0.50;0.20;;;;;;;;;;4997417;28;20030;-18
2021/12/19 07:59:53;;;;;;;1.08;0.47;;;;;;;;;;4997606;28;20049;-18
2021/12/19 08:02:20;;;;;;;1.47;0.40;;;;;;;;;;4997736;28;20452;-18
2021/12/19 08:04:47;;;;;;;0.77;0.30;;;;;;;;;;4997349;28;20030;-18
2021/12/19 08:07:16;;;;;;;1.02;0.28;;;;;;;;;;5008060;28;20125;-18
2021/12/19 08:10:11;;;;;;;1.10;0.40;;;;;;;;;;5016778;28;20112;-17
2021/12/19 08:12:38;;;;;;;0.70;0.30;;;;;;;;;;5016642;28;20026;-18
2021/12/19 08:15:05;;;;;;;1.02;0.45;;;;;;;;;;5016989;28;20041;-18
2021/12/19 08:17:31;;;;;;;1.70;0.50;;;;;;;;;;5016979;28;20033;-18
2021/12/19 08:19:58;;;;;;;0.70;0.23;;;;;;;;;;5016672;28;20037;-18
2021/12/19 08:22:26;;;;;;;1.95;0.95;;;;;;;;;;5016482;28;20032;-18
2021/12/19 08:24:53;;;;;;;0.55;0.40;;;;;;;;;;5016492;28;20022;-18
2021/12/19 08:27:19;;;;;;;1.17;0.30;;;;;;;;;;4999075;28;20026;-18
2021/12/19 08:29:47;;;;;;;1.15;0.30;;;;;;;;;;5016448;28;20060;-18
2021/12/19 08:32:15;;;;;;;2.67;0.90;;;;;;;;;;5016163;28;20029;-18
2021/12/19 08:34:42;;;;;;;0.98;0.38;;;;;;;;;;5016590;28;20037;-18
2021/12/19 08:37:09;;;;;;;0.38;0.30;;;;;;;;;;5016495;28;20022;-18
2021/12/19 08:39:35;;;;;;;1.20;0.30;;;;;;;;;;5016266;28;20030;-18
2021/12/19 08:42:02;;;;;;;2.03;0.55;;;;;;;;;;5016077;28;20026;-18
2021/12/19 08:44:28;;;;;;;1.20;0.50;;;;;;;;;;5016453;28;20345;-18
2021/12/19 08:46:56;;;;;;;1.10;0.40;;;;;;;;;;5016150;28;20416;-18
2021/12/19 08:49:25;;;;;;;2.17;0.40;;;;;;;;;;5016029;28;20292;-18
2021/12/19 08:51:51;;;;;;;2.45;0.32;;;;;;;;;;5016107;28;20029;-17
2021/12/19 08:54:18;;;;;;;0.63;0.33;;;;;;;;;;5016257;28;20064;-17
2021/12/19 08:56:45;;;;;;;0.55;0.20;;;;;;;;;;4998668;28;20029;-17
2021/12/19 08:59:12;;;;;;;2.85;0.47;;;;;;;;;;5015884;28;20018;-17
2021/12/19 09:01:39;;;;;;;0.65;0.22;;;;;;;;;;5015916;28;20036;-18
2021/12/19 09:04:06;;;;;;;0.93;0.40;;;;;;;;;;5015703;28;20033;-18
2021/12/19 09:06:32;;;;;;;0.88;0.30;;;;;;;;;;5015605;28;20052;-18
2021/12/19 09:09:01;;;;;;;1.25;0.40;;;;;;;;;;5015989;28;20176;-18
2021/12/19 09:11:28;;;;;;;0.60;0.43;;;;;;;;;;5015518;28;20109;-18
2021/12/19 09:13:55;;;;;;;1.23;0.38;;;;;;;;;;5015581;28;20029;-18
2021/12/19 09:16:22;;;;;;;0.83;0.30;;;;;;;;;;5015615;28;20497;-18
2021/12/19 09:18:50;;;;;;;1.40;0.63;;;;;;;;;;4998192;28;20257;-18
2021/12/19 09:21:17;;;;;;;0.77;0.30;;;;;;;;;;5015481;28;20096;-17
2021/12/19 09:23:44;;;;;;;0.65;0.35;;;;;;;;;;5015374;28;20034;-18
2021/12/19 09:26:13;;;;;;;1.70;0.40;;;;;;;;;;5015431;28;20037;-18
2021/12/19 09:28:40;;;;;;;0.65;0.25;;;;;;;;;;5015627;28;20026;-18
2021/12/19 09:31:06;;;;;;;1.15;0.30;;;;;;;;;;5015545;28;20433;-20
2021/12/19 09:33:33;;;;;;;1.30;0.30;;;;;;;;;;5015259;28;20084;-18
2021/12/19 09:36:00;;;;;;;1.63;0.28;;;;;;;;;;5015275;28;20029;-18
2021/12/19 09:38:29;;;;;;;1.20;0.50;;;;;;;;;;4998651;28;20030;-18
2021/12/19 09:41:01;;;;;;;2.15;0.40;;;;;;;;;;5014766;28;20041;-18
2021/12/19 09:43:43;;;;;;;0.95;0.25;;;;;;;;;;5015040;28;20068;-18
2021/12/19 09:46:25;;;;;;;1.27;0.40;;;;;;;;;;5015060;28;20087;-18
2021/12/19 09:48:51;;;;;;;1.20;0.35;;;;;;;;;;5015045;28;20034;-18
2021/12/19 09:51:18;;;;;;;0.98;0.40;;;;;;;;;;5014935;28;20026;-18
2021/12/19 09:53:47;;;;;;;0.85;0.30;;;;;;;;;;5014935;28;20026;-18
2021/12/19 09:56:14;;;;;;;1.00;0.40;;;;;;;;;;5014929;28;20030;-18
2021/12/19 09:58:41;;;;;;;0.55;0.22;;;;;;;;;;5014929;28;20033;-18
2021/12/19 10:01:09;;;;;;;0.60;0.30;;;;;;;;;;5014895;28;20026;-18
2021/12/19 10:03:36;;;;;;;1.67;0.40;;;;;;;;;;5015033;28;20045;-18
2021/12/19 10:06:35;;;;;;;0.63;0.40;;;;;;;;;;5014855;28;20100;-18
2021/12/19 10:09:09;;;;;;;0.93;0.40;;;;;;;;;;4962110;28;20191;-17
2021/12/19 10:12:12;;;;;;;0.40;0.30;;;;;;;;;;5014914;28;20101;-18
2021/12/19 10:14:34;;;;;;;0.63;0.30;;;;;;;;;;5013494;28;20038;-18
2021/12/19 10:17:03;;;;;;;0.65;0.20;;;;;;;;;;5014973;28;20098;-18
2021/12/19 10:19:44;;;;;;;1.35;0.10;;;;;;;;;;5014694;28;20040;-18
2021/12/19 10:22:29;;;;;;;1.00;0.20;;;;;;;;;;5014614;28;20373;-18
2021/12/19 10:24:57;;;;;;;2.15;0.30;;;;;;;;;;5014568;28;20045;-17
2021/12/19 10:27:37;;;;;;;1.55;0.20;;;;;;;;;;5014616;28;20401;-17
2021/12/19 10:30:09;;;;;;;1.15;0.30;;;;;;;;;;5014529;28;20037;-18
2021/12/19 10:32:37;;;;;;;0.73;0.40;;;;;;;;;;5014468;28;20032;-17
2021/12/19 10:35:13;;;;;;;1.73;0.30;;;;;;;;;;5014570;28;20022;-18
2021/12/19 10:37:41;;;;;;;0.80;0.30;;;;;;;;;;5015578;28;20109;-18
2021/12/19 10:40:07;;;;;;;1.08;0.30;;;;;;;;;;5014481;28;20044;-18
2021/12/19 10:42:47;;;;;;;1.30;0.32;;;;;;;;;;5014417;28;20489;-18
2021/12/19 10:45:29;;;;;;;0.73;0.30;;;;;;;;;;5014359;28;20045;-17
2021/12/19 10:48:16;;;;;;;0.90;0.50;;;;;;;;;;5014428;28;20049;-18
2021/12/19 10:50:42;;;;;;;0.60;0.30;;;;;;;;;;4998377;28;20069;-18
2021/12/19 10:53:10;;;;;;;1.17;0.30;;;;;;;;;;5017930;28;20037;-18
2021/12/19 10:55:40;;;;;;;1.15;0.30;;;;;;;;;;5018179;28;20021;-18
2021/12/19 10:58:19;;;;;;;1.20;0.30;;;;;;;;;;5018113;28;20022;-18
2021/12/19 11:01:04;;;;;;;1.10;0.40;;;;;;;;;;5018376;28;20049;-18
2021/12/19 11:04:00;;;;;;;1.60;0.70;;;;;;;;;;5018254;28;20034;-19
2021/12/19 11:06:29;;;;;;;0.55;0.20;;;;;;;;;;4996905;28;20061;-18
2021/12/19 11:08:55;;;;;;;1.27;0.45;;;;;;;;;;5017915;28;20034;-18
2021/12/19 11:11:31;;;;;;;0.77;0.30;;;;;;;;;;5017845;28;20041;-18
2021/12/19 11:13:58;;;;;;;0.90;0.47;;;;;;;;;;5017700;28;20033;-18
2021/12/19 11:16:26;;;;;;;0.88;0.40;;;;;;;;;;5018100;28;20034;-17
2021/12/19 11:18:54;;;;;;;0.70;0.40;;;;;;;;;;5000726;28;20026;-18
2021/12/19 11:21:20;;;;;;;1.40;0.50;;;;;;;;;;5017692;28;20037;-18
2021/12/19 11:23:47;;;;;;;1.00;0.93;;;;;;;;;;5017689;28;20026;-18
2021/12/19 11:26:14;;;;;;;0.35;0.20;;;;;;;;;;5017920;28;20339;-18
2021/12/19 11:28:40;;;;;;;1.65;0.20;;;;;;;;;;5017651;28;20037;-18
2021/12/19 11:31:08;;;;;;;0.30;0.20;;;;;;;;;;5000364;28;20449;-18
2021/12/19 11:33:50;;;;;;;0.55;0.20;;;;;;;;;;5000110;28;20092;-18
2021/12/19 11:36:16;;;;;;;0.15;0.10;;;;;;;;;;5017758;28;20080;-18
2021/12/19 11:38:46;;;;;;;0.65;0.20;;;;;;;;;;5017475;28;20026;-18
2021/12/19 11:41:12;;;;;;;2.42;0.30;;;;;;;;;;5017614;28;20033;-18
2021/12/19 11:43:42;;;;;;;0.83;0.20;;;;;;;;;;5017528;28;20025;-18
2021/12/19 11:46:19;;;;;;;0.70;0.20;;;;;;;;;;5017274;28;20361;-18
2021/12/19 11:48:46;;;;;;;1.25;0.40;;;;;;;;;;5000006;28;20030;-18
2021/12/19 11:51:13;;;;;;;;;;;;;;;;;;5017515;28;20092;-18
2021/12/19 11:53:41;;;;;;;0.50;0.30;;;;;;;;;;4999839;28;19964;-18
2021/12/19 11:56:14;;;;;;;0.77;0.22;;;;;;;;;;5017150;28;20022;-17
2021/12/19 11:58:45;;;;;;;2.35;0.77;;;;;;;;;;5017329;28;20030;-18
2021/12/19 12:01:14;;;;;;;1.23;0.30;;;;;;;;;;5017297;28;20037;-17
2021/12/19 12:03:44;;;;;;;0.60;0.30;;;;;;;;;;4999401;28;20084;-19
2021/12/19 12:06:11;;;;;;;0.90;0.40;;;;;;;;;;5016832;28;20026;-18
2021/12/19 12:08:37;;;;;;;0.43;0.23;;;;;;;;;;5016876;28;20045;-18
2021/12/19 12:11:05;;;;;;;0.95;0.20;;;;;;;;;;5016765;28;20505;-17
2021/12/19 12:13:33;;;;;;;2.17;0.73;;;;;;;;;;5016917;28;20335;-18
2021/12/19 12:16:28;;;;;;;0.70;0.20;;;;;;;;;;5017220;28;20037;-18
2021/12/19 12:18:56;;;;;;;0.65;0.32;;;;;;;;;;5016939;28;20029;-18
2021/12/19 12:21:25;;;;;;;0.70;0.20;;;;;;;;;;4999309;28;20029;-18
2021/12/19 12:23:53;;;;;;;0.28;0.20;;;;;;;;;;4999228;28;20486;-18
2021/12/19 12:26:26;;;;;;;0.52;0.20;;;;;;;;;;5016460;28;20038;-18
2021/12/19 12:28:52;;;;;;;0.70;0.20;;;;;;;;;;5016422;28;20041;-18
2021/12/19 12:31:20;;;;;;;1.00;0.20;;;;;;;;;;5016368;28;20057;-18
2021/12/19 12:33:48;;;;;;;0.93;0.38;;;;;;;;;;5016293;28;20161;-16
2021/12/19 12:36:15;;;;;;;1.60;0.22;;;;;;;;;;5016304;28;20033;-18
2021/12/19 12:38:46;;;;;;;0.85;0.30;;;;;;;;;;5016546;28;20449;-18
2021/12/19 12:41:27;;;;;;;0.70;0.20;;;;;;;;;;5016194;28;20041;-17
2021/12/19 12:43:55;;;;;;;0.20;0.17;;;;;;;;;;4998795;28;20104;-18
2021/12/19 12:46:23;;;;;;;0.40;0.30;;;;;;;;;;5016373;28;20139;-18
2021/12/19 12:48:52;;;;;;;0.40;0.20;;;;;;;;;;5016333;28;20056;-18
2021/12/19 12:51:20;;;;;;;0.77;0.20;;;;;;;;;;4998666;28;20425;-18
2021/12/19 12:53:50;;;;;;;0.30;0.20;;;;;;;;;;5015961;28;20105;-18
2021/12/19 12:56:20;;;;;;;0.47;0.20;;;;;;;;;;5015961;28;20026;-17
2021/12/19 12:58:48;;;;;;;0.95;0.30;;;;;;;;;;5015838;28;20113;-18
2021/12/19 13:01:42;;;;;;;1.05;0.47;;;;;;;;;;5015834;28;20030;-18
2021/12/19 13:04:24;;;;;;;0.70;0.20;;;;;;;;;;5012608;28;20076;-17
2021/12/19 13:07:01;;;;;;;0.40;0.30;;;;;;;;;;5015301;28;20054;-17
2021/12/19 13:09:29;;;;;;;1.35;0.40;;;;;;;;;;5015667;28;20038;-17
2021/12/19 13:12:08;;;;;;;1.02;0.25;;;;;;;;;;5015464;28;20101;-17
2021/12/19 13:14:38;;;;;;;0.50;0.20;;;;;;;;;;5014781;28;20065;-18
2021/12/19 13:17:07;;;;;;;0.50;0.30;;;;;;;;;;5015881;28;20066;-18
2021/12/19 13:19:38;;;;;;;2.20;0.20;;;;;;;;;;5015824;28;20033;-18
2021/12/19 13:22:07;;;;;;;0.88;0.20;;;;;;;;;;5015451;28;20037;-18
2021/12/19 13:24:35;;;;;;;1.20;0.47;;;;;;;;;;5015722;28;20369;-18
2021/12/19 13:27:13;;;;;;;0.68;0.20;;;;;;;;;;5015462;28;20029;-17
2021/12/19 13:29:41;;;;;;;0.28;0.17;;;;;;;;;;5015663;28;20479;-18
2021/12/19 13:32:19;;;;;;;0.73;0.40;;;;;;;;;;5015423;28;20022;-18
2021/12/19 13:34:46;;;;;;;0.47;0.28;;;;;;;;;;5015339;28;20029;-19
2021/12/19 13:37:13;;;;;;;;;;;;;;;;;;4998428;28;20487;-18
2021/12/19 13:39:41;;;;;;;0.38;0.22;;;;;;;;;;5015277;28;20251;-18
2021/12/19 13:42:08;;;;;;;0.45;0.22;;;;;;;;;;5015094;28;20416;-18
2021/12/19 13:44:35;;;;;;;0.57;0.30;;;;;;;;;;5015378;28;20113;-18
2021/12/19 13:47:15;;;;;;;0.63;0.52;;;;;;;;;;4997752;28;20069;-18
2021/12/19 13:49:42;;;;;;;1.48;0.28;;;;;;;;;;5015332;28;20104;-18
2021/12/19 13:52:09;;;;;;;0.57;0.30;;;;;;;;;;5014865;28;20025;-18
2021/12/19 13:54:38;;;;;;;0.50;0.20;;;;;;;;;;4997674;28;20347;-18
2021/12/19 13:57:17;;;;;;;0.20;0.10;;;;;;;;;;5014884;28;20041;-17
2021/12/19 13:59:43;;;;;;;0.63;0.30;;;;;;;;;;5014918;28;20032;-18
2021/12/19 14:02:13;;;;;;;1.60;0.17;;;;;;;;;;5015046;28;20493;-18
2021/12/19 14:04:40;;;;;;;0.45;0.20;;;;;;;;;;4997508;28;20373;-18
2021/12/19 14:07:13;;;;;;;0.98;0.30;;;;;;;;;;4993991;28;20046;-17
2021/12/19 14:09:45;;;;;;;1.58;0.20;;;;;;;;;;4995511;28;20310;-19
2021/12/19 14:12:51;;;;;;;1.13;0.30;;;;;;;;;;4995283;28;20026;-17
2021/12/19 14:15:17;;;;;;;0.65;0.32;;;;;;;;;;4994976;28;20049;-17
2021/12/19 14:17:43;;;;;;;0.52;0.30;;;;;;;;;;4995059;28;20390;-19
2021/12/19 14:20:11;;;;;;;1.00;0.20;;;;;;;;;;4995078;28;20029;-18
2021/12/19 14:22:39;;;;;;;1.02;0.28;;;;;;;;;;4994433;28;20061;-18
2021/12/19 14:25:07;;;;;;;0.95;0.38;;;;;;;;;;4995552;28;20031;-17
2021/12/19 14:27:36;;;;;;;0.82;0.25;;;;;;;;;;4999075;28;20037;-18
2021/12/19 14:30:05;;;;;;;0.75;0.20;;;;;;;;;;4999280;28;20116;-18
2021/12/19 14:32:33;;;;;;;0.70;0.30;;;;;;;;;;4998970;28;20026;-18
2021/12/19 14:35:02;;;;;;;0.85;0.20;;;;;;;;;;4999042;28;20092;-18
2021/12/19 14:37:32;;;;;;;0.30;0.20;;;;;;;;;;4998912;28;20054;-18
2021/12/19 14:39:59;;;;;;;0.55;0.17;;;;;;;;;;4998919;28;20018;-18
2021/12/19 14:42:34;;;;;;;0.20;0.20;;;;;;;;;;4999222;28;20397;-17
2021/12/19 14:45:02;;;;;;;0.43;0.20;;;;;;;;;;4998847;28;20269;-18
2021/12/19 14:47:43;;;;;;;1.10;0.28;;;;;;;;;;4999296;28;20097;-18
2021/12/19 14:50:11;;;;;;;0.28;0.20;;;;;;;;;;4998037;28;20057;-18
2021/12/19 14:52:37;;;;;;;0.80;0.20;;;;;;;;;;4999124;28;20038;-18
2021/12/19 14:55:11;;;;;;;0.63;0.20;;;;;;;;;;4998646;28;20026;-18
2021/12/19 14:57:38;;;;;;;1.05;0.50;;;;;;;;;;4998592;28;20026;-18
2021/12/19 15:00:08;;;;;;;0.63;0.28;;;;;;;;;;4998585;28;20057;-18
2021/12/19 15:02:36;;;;;;;1.13;0.50;;;;;;;;;;4998619;28;20023;-18
2021/12/19 15:05:03;;;;;;;0.60;0.20;;;;;;;;;;4998743;28;20026;-18
2021/12/19 15:07:31;;;;;;;0.30;0.20;;;;;;;;;;5010465;28;20041;-18
2021/12/19 15:09:57;;;;;;;0.68;0.20;;;;;;;;;;5018258;28;20403;-18
2021/12/19 15:12:24;;;;;;;1.00;0.50;;;;;;;;;;5018085;28;20346;-18
2021/12/19 15:14:51;;;;;;;0.53;0.20;;;;;;;;;;5018155;28;20346;-18
2021/12/19 15:17:17;;;;;;;0.43;0.10;;;;;;;;;;5017994;28;20028;-18
2021/12/19 15:19:44;;;;;;;0.80;0.20;;;;;;;;;;5018048;28;20350;-18
2021/12/19 15:22:11;;;;;;;0.33;0.30;;;;;;;;;;5017675;28;20292;-18
2021/12/19 15:24:40;;;;;;;0.68;0.30;;;;;;;;;;5017963;28;20032;-18
2021/12/19 15:27:06;;;;;;;1.00;0.30;;;;;;;;;;5017926;28;20356;-18
2021/12/19 15:29:33;;;;;;;0.20;0.10;;;;;;;;;;5017689;28;20030;-18
2021/12/19 15:31:59;;;;;;;0.68;0.20;;;;;;;;;;5017429;28;20127;-18
2021/12/19 15:34:27;;;;;;;0.60;0.32;;;;;;;;;;5017822;28;20484;-17
2021/12/19 15:36:55;;;;;;;0.47;0.20;;;;;;;;;;5016635;28;20404;-18
2021/12/19 15:39:22;;;;;;;0.65;0.20;;;;;;;;;;5017440;28;20034;-17
2021/12/19 15:41:50;;;;;;;0.55;0.20;;;;;;;;;;5017904;28;20032;-18
2021/12/19 15:44:17;;;;;;;0.47;0.30;;;;;;;;;;5017330;28;20064;-18
2021/12/19 15:46:44;;;;;;;0.60;0.30;;;;;;;;;;5017301;28;20116;-18
2021/12/19 15:49:10;;;;;;;0.10;0.10;;;;;;;;;;5017570;28;20389;-19
2021/12/19 15:51:38;;;;;;;0.28;0.17;;;;;;;;;;5017175;28;20369;-17
2021/12/19 15:54:04;;;;;;;0.95;0.50;;;;;;;;;;4999740;28;20026;-18
2021/12/19 15:56:31;;;;;;;0.63;0.30;;;;;;;;;;5017092;28;20089;-18
2021/12/19 15:59:00;;;;;;;0.45;0.20;;;;;;;;;;5017344;28;20026;-18
2021/12/19 16:01:27;;;;;;;0.38;0.30;;;;;;;;;;5016891;28;20443;-18